sensor_id;sensor_type;location;lat;lon;timestamp;temperature;humidity
2212;DHT22;48849;48.758;9.158;2023-12-14T00:00:43;10.10;99.90
2212;DHT22;48849;48.758;9.158;2023-12-14T00:03:10;10.10;99.90
2212;DHT22;48849;48.758;9.158;2023-12-14T00:05:36;10.10;99.90
2212;DHT22;48849;48.758;9.158;2023-12-14T00:08:05;10.10;99.90
2212;DHT22;48849;48.758;9.158;2023-12-14T00:10:31;10.20;99.90
2212;DHT22;48849;48.758;9.158;2023-12-14T00:12:58;10.10;99.90
2212;DHT22;48849;48.758;9.158;2023-12-14T00:15:25;10.10;99.90
2212;DHT22;48849;48.758;9.158;2023-12-14T00:17:51;10.10;99.90
2212;DHT22;48849;48.758;9.158;2023-12-14T00:20:18;10.10;99.90
2212;DHT22;48849;48.758;9.158;2023-12-14T00:22:45;10.00;99.90
2212;DHT22;48849;48.758;9.158;2023-12-14T00:25:13;10.00;99.90
2212;DHT22;48849;48.758;9.158;2023-12-14T00:27:40;10.10;99.90
2212;DHT22;48849;48.758;9.158;2023-12-14T00:30:08;10.00;99.90
2212;DHT22;48849;48.758;9.158;2023-12-14T00:32:34;10.10;99.90
2212;DHT22;48849;48.758;9.158;2023-12-14T00:35:01;10.10;99.90
2212;DHT22;48849;48.758;9.158;2023-12-14T00:37:28;10.10;99.90
2212;DHT22;48849;48.758;9.158;2023-12-14T00:39:55;10.10;99.90
2212;DHT22;48849;48.758;9.158;2023-12-14T00:42:23;10.00;99.90
2212;DHT22;48849;48.758;9.158;2023-12-14T00:44:49;10.10;99.90
2212;DHT22;48849;48.758;9.158;2023-12-14T00:47:16;10.10;99.90
2212;DHT22;48849;48.758;9.158;2023-12-14T00:49:43;10.10;99.90
2212;DHT22;48849;48.758;9.158;2023-12-14T00:52:09;10.10;99.90
2212;DHT22;48849;48.758;9.158;2023-12-14T00:54:36;10.00;99.90
2212;DHT22;48849;48.758;9.158;2023-12-14T00:57:03;10.00;99.90
2212;DHT22;48849;48.758;9.158;2023-12-14T00:59:31;10.00;99.90
2212;DHT22;48849;48.758;9.158;2023-12-14T01:01:58;10.00;99.90
2212;DHT22;48849;48.758;9.158;2023-12-14T01:04:25;10.00;99.90
2212;DHT22;48849;48.758;9.158;2023-12-14T01:06:51;10.00;99.90
2212;DHT22;48849;48.758;9.158;2023-12-14T01:09:18;10.00;99.90
2212;DHT22;48849;48.758;9.158;2023-12-14T01:11:45;10.00;99.90
2212;DHT22;48849;48.758;9.158;2023-12-14T01:14:11;10.00;99.90
2212;DHT22;48849;48.758;9.158;2023-12-14T01:16:40;10.00;99.90
2212;DHT22;48849;48.758;9.158;2023-12-14T01:19:06;10.00;99.90
2212;DHT22;48849;48.758;9.158;2023-12-14T01:21:33;9.90;99.90
2212;DHT22;48849;48.758;9.158;2023-12-14T01:24:00;9.90;99.90
2212;DHT22;48849;48.758;9.158;2023-12-14T01:26:27;9.90;99.90
2212;DHT22;48849;48.758;9.158;2023-12-14T01:28:53;10.00;99.90
2212;DHT22;48849;48.758;9.158;2023-12-14T01:31:20;10.00;99.90
2212;DHT22;48849;48.758;9.158;2023-12-14T01:33:50;10.00;99.90
2212;DHT22;48849;48.758;9.158;2023-12-14T01:36:20;10.10;99.90
2212;DHT22;48849;48.758;9.158;2023-12-14T01:38:48;10.00;99.90
2212;DHT22;48849;48.758;9.158;2023-12-14T01:41:14;10.00;99.90
2212;DHT22;48849;48.758;9.158;2023-12-14T01:43:41;10.00;99.90
2212;DHT22;48849;48.758;9.158;2023-12-14T01:46:08;10.00;99.90
2212;DHT22;48849;48.758;9.158;2023-12-14T01:48:35;10.00;99.90
2212;DHT22;48849;48.758;9.158;2023-12-14T01:51:04;10.00;99.90
2212;DHT22;48849;48.758;9.158;2023-12-14T01:53:30;10.00;99.90
2212;DHT22;48849;48.758;9.158;2023-12-14T01:55:57;10.00;99.90
2212;DHT22;48849;48.758;9.158;2023-12-14T01:58:24;10.00;99.90
2212;DHT22;48849;48.758;9.158;2023-12-14T02:00:58;9.90;99.90
2212;DHT22;48849;48.758;9.158;2023-12-14T02:03:27;9.90;99.90
2212;DHT22;48849;48.758;9.158;2023-12-14T02:05:53;10.00;99.90
2212;DHT22;48849;48.758;9.158;2023-12-14T02:08:22;10.00;99.90
2212;DHT22;48849;48.758;9.158;2023-12-14T02:10:48;10.00;99.90
2212;DHT22;48849;48.758;9.158;2023-12-14T02:13:15;10.10;99.90
2212;DHT22;48849;48.758;9.158;2023-12-14T02:15:42;10.10;99.90
2212;DHT22;48849;48.758;9.158;2023-12-14T02:18:09;10.10;99.90
2212;DHT22;48849;48.758;9.158;2023-12-14T02:20:35;10.00;99.90
2212;DHT22;48849;48.758;9.158;2023-12-14T02:23:03;10.00;99.90
2212;DHT22;48849;48.758;9.158;2023-12-14T02:25:30;10.00;99.90
2212;DHT22;48849;48.758;9.158;2023-12-14T02:27:57;9.90;99.90
2212;DHT22;48849;48.758;9.158;2023-12-14T02:30:23;10.00;99.90
2212;DHT22;48849;48.758;9.158;2023-12-14T02:32:50;10.00;99.90
2212;DHT22;48849;48.758;9.158;2023-12-14T02:35:17;10.00;99.90
2212;DHT22;48849;48.758;9.158;2023-12-14T02:37:44;10.00;99.90
2212;DHT22;48849;48.758;9.158;2023-12-14T02:40:12;10.00;99.90
2212;DHT22;48849;48.758;9.158;2023-12-14T02:42:39;10.00;99.90
2212;DHT22;48849;48.758;9.158;2023-12-14T02:45:07;9.90;99.90
2212;DHT22;48849;48.758;9.158;2023-12-14T02:47:34;9.90;99.90
2212;DHT22;48849;48.758;9.158;2023-12-14T02:50:01;9.80;99.90
2212;DHT22;48849;48.758;9.158;2023-12-14T02:52:28;9.90;99.90
2212;DHT22;48849;48.758;9.158;2023-12-14T02:54:55;9.90;99.90
2212;DHT22;48849;48.758;9.158;2023-12-14T02:57:23;9.90;99.90
2212;DHT22;48849;48.758;9.158;2023-12-14T02:59:50;9.90;99.90
2212;DHT22;48849;48.758;9.158;2023-12-14T03:02:17;9.90;99.90
2212;DHT22;48849;48.758;9.158;2023-12-14T03:04:44;10.00;99.90
2212;DHT22;48849;48.758;9.158;2023-12-14T03:07:10;10.00;99.90
2212;DHT22;48849;48.758;9.158;2023-12-14T03:09:39;10.00;99.90
2212;DHT22;48849;48.758;9.158;2023-12-14T03:12:08;9.90;99.90
2212;DHT22;48849;48.758;9.158;2023-12-14T03:14:37;10.00;99.90
2212;DHT22;48849;48.758;9.158;2023-12-14T03:17:03;9.90;99.90
2212;DHT22;48849;48.758;9.158;2023-12-14T03:19:31;9.90;99.90
2212;DHT22;48849;48.758;9.158;2023-12-14T03:21:57;9.90;99.90
2212;DHT22;48849;48.758;9.158;2023-12-14T03:24:24;9.90;99.90
2212;DHT22;48849;48.758;9.158;2023-12-14T03:26:51;9.90;99.90
2212;DHT22;48849;48.758;9.158;2023-12-14T03:29:18;9.90;99.90
2212;DHT22;48849;48.758;9.158;2023-12-14T03:31:48;9.90;99.90
2212;DHT22;48849;48.758;9.158;2023-12-14T03:34:15;9.90;99.90
2212;DHT22;48849;48.758;9.158;2023-12-14T03:36:41;9.90;99.90
2212;DHT22;48849;48.758;9.158;2023-12-14T03:39:08;10.00;99.90
2212;DHT22;48849;48.758;9.158;2023-12-14T03:41:35;10.00;99.90
2212;DHT22;48849;48.758;9.158;2023-12-14T03:44:02;10.00;99.90
2212;DHT22;48849;48.758;9.158;2023-12-14T03:46:29;9.90;99.90
2212;DHT22;48849;48.758;9.158;2023-12-14T03:48:57;10.00;99.90
2212;DHT22;48849;48.758;9.158;2023-12-14T03:51:24;10.00;99.90
2212;DHT22;48849;48.758;9.158;2023-12-14T03:53:51;10.00;99.90
2212;DHT22;48849;48.758;9.158;2023-12-14T03:56:18;10.00;99.90
2212;DHT22;48849;48.758;9.158;2023-12-14T03:58:44;10.00;99.90
2212;DHT22;48849;48.758;9.158;2023-12-14T04:01:17;10.00;99.90
2212;DHT22;48849;48.758;9.158;2023-12-14T04:03:44;10.00;99.90
2212;DHT22;48849;48.758;9.158;2023-12-14T04:06:12;10.00;99.90
2212;DHT22;48849;48.758;9.158;2023-12-14T04:08:39;10.00;99.90
2212;DHT22;48849;48.758;9.158;2023-12-14T04:11:06;10.00;99.90
2212;DHT22;48849;48.758;9.158;2023-12-14T04:13:33;10.00;99.90
2212;DHT22;48849;48.758;9.158;2023-12-14T04:16:00;10.00;99.90
2212;DHT22;48849;48.758;9.158;2023-12-14T04:18:27;10.00;99.90
2212;DHT22;48849;48.758;9.158;2023-12-14T04:20:54;10.00;99.90
2212;DHT22;48849;48.758;9.158;2023-12-14T04:23:22;10.00;99.90
2212;DHT22;48849;48.758;9.158;2023-12-14T04:25:49;10.00;99.90
2212;DHT22;48849;48.758;9.158;2023-12-14T04:28:15;10.00;99.90
2212;DHT22;48849;48.758;9.158;2023-12-14T04:30:42;10.00;99.90
2212;DHT22;48849;48.758;9.158;2023-12-14T04:33:09;10.00;99.90
2212;DHT22;48849;48.758;9.158;2023-12-14T04:35:37;9.90;99.90
2212;DHT22;48849;48.758;9.158;2023-12-14T04:38:03;9.90;99.90
2212;DHT22;48849;48.758;9.158;2023-12-14T04:40:32;10.00;99.90
2212;DHT22;48849;48.758;9.158;2023-12-14T04:42:58;10.00;99.90
2212;DHT22;48849;48.758;9.158;2023-12-14T04:45:25;10.00;99.90
2212;DHT22;48849;48.758;9.158;2023-12-14T04:47:52;10.00;99.90
2212;DHT22;48849;48.758;9.158;2023-12-14T04:50:19;10.00;99.90
2212;DHT22;48849;48.758;9.158;2023-12-14T04:52:46;10.00;99.90
2212;DHT22;48849;48.758;9.158;2023-12-14T04:55:13;10.00;99.90
2212;DHT22;48849;48.758;9.158;2023-12-14T04:57:41;10.10;99.90
2212;DHT22;48849;48.758;9.158;2023-12-14T05:00:09;10.00;99.90
2212;DHT22;48849;48.758;9.158;2023-12-14T05:02:36;10.00;99.90
2212;DHT22;48849;48.758;9.158;2023-12-14T05:05:03;10.00;99.90
2212;DHT22;48849;48.758;9.158;2023-12-14T05:07:30;10.00;99.90
2212;DHT22;48849;48.758;9.158;2023-12-14T05:09:57;10.00;99.90
2212;DHT22;48849;48.758;9.158;2023-12-14T05:12:23;10.00;99.90
2212;DHT22;48849;48.758;9.158;2023-12-14T05:14:53;10.10;99.90
2212;DHT22;48849;48.758;9.158;2023-12-14T05:17:20;10.00;99.90
2212;DHT22;48849;48.758;9.158;2023-12-14T05:19:47;10.10;99.90
2212;DHT22;48849;48.758;9.158;2023-12-14T05:22:14;10.00;99.90
2212;DHT22;48849;48.758;9.158;2023-12-14T05:24:40;10.10;99.90
2212;DHT22;48849;48.758;9.158;2023-12-14T05:27:07;10.10;99.90
2212;DHT22;48849;48.758;9.158;2023-12-14T05:29:34;10.10;99.90
2212;DHT22;48849;48.758;9.158;2023-12-14T05:32:03;10.10;99.90
2212;DHT22;48849;48.758;9.158;2023-12-14T05:34:29;10.00;99.90
2212;DHT22;48849;48.758;9.158;2023-12-14T05:36:56;10.00;99.90
2212;DHT22;48849;48.758;9.158;2023-12-14T05:39:23;10.00;99.90
2212;DHT22;48849;48.758;9.158;2023-12-14T05:41:50;10.00;99.90
2212;DHT22;48849;48.758;9.158;2023-12-14T05:44:16;10.00;99.90
2212;DHT22;48849;48.758;9.158;2023-12-14T05:46:43;10.00;99.90
2212;DHT22;48849;48.758;9.158;2023-12-14T05:49:11;10.00;99.90
2212;DHT22;48849;48.758;9.158;2023-12-14T05:51:38;10.00;99.90
2212;DHT22;48849;48.758;9.158;2023-12-14T05:54:05;10.00;99.90
2212;DHT22;48849;48.758;9.158;2023-12-14T05:56:32;10.00;99.90
2212;DHT22;48849;48.758;9.158;2023-12-14T05:58:59;10.00;99.90
2212;DHT22;48849;48.758;9.158;2023-12-14T06:01:26;10.10;99.90
2212;DHT22;48849;48.758;9.158;2023-12-14T06:03:52;10.10;99.90
2212;DHT22;48849;48.758;9.158;2023-12-14T06:06:20;10.10;99.90
2212;DHT22;48849;48.758;9.158;2023-12-14T06:08:48;10.10;99.90
2212;DHT22;48849;48.758;9.158;2023-12-14T06:11:15;10.10;99.90
2212;DHT22;48849;48.758;9.158;2023-12-14T06:13:41;10.10;99.90
2212;DHT22;48849;48.758;9.158;2023-12-14T06:16:08;10.00;99.90
2212;DHT22;48849;48.758;9.158;2023-12-14T06:18:39;10.10;99.90
2212;DHT22;48849;48.758;9.158;2023-12-14T06:21:07;10.10;99.90
2212;DHT22;48849;48.758;9.158;2023-12-14T06:23:35;10.10;99.90
2212;DHT22;48849;48.758;9.158;2023-12-14T06:26:02;10.10;99.90
2212;DHT22;48849;48.758;9.158;2023-12-14T06:28:29;10.10;99.90
2212;DHT22;48849;48.758;9.158;2023-12-14T06:30:57;10.10;99.90
2212;DHT22;48849;48.758;9.158;2023-12-14T06:33:23;10.10;99.90
2212;DHT22;48849;48.758;9.158;2023-12-14T06:35:50;10.10;99.90
2212;DHT22;48849;48.758;9.158;2023-12-14T06:38:17;10.20;99.90
2212;DHT22;48849;48.758;9.158;2023-12-14T06:40:45;10.20;99.90
2212;DHT22;48849;48.758;9.158;2023-12-14T06:43:12;10.20;99.90
2212;DHT22;48849;48.758;9.158;2023-12-14T06:45:39;10.20;99.90
2212;DHT22;48849;48.758;9.158;2023-12-14T06:48:06;10.20;99.90
2212;DHT22;48849;48.758;9.158;2023-12-14T06:50:32;10.20;99.90
2212;DHT22;48849;48.758;9.158;2023-12-14T06:52:59;10.30;99.90
2212;DHT22;48849;48.758;9.158;2023-12-14T06:55:26;10.30;99.90
2212;DHT22;48849;48.758;9.158;2023-12-14T06:57:54;10.30;99.90
2212;DHT22;48849;48.758;9.158;2023-12-14T07:00:21;10.20;99.90
2212;DHT22;48849;48.758;9.158;2023-12-14T07:02:48;10.20;99.90
2212;DHT22;48849;48.758;9.158;2023-12-14T07:05:14;10.20;99.90
2212;DHT22;48849;48.758;9.158;2023-12-14T07:07:41;10.20;99.90
2212;DHT22;48849;48.758;9.158;2023-12-14T07:10:08;10.20;99.90
2212;DHT22;48849;48.758;9.158;2023-12-14T07:12:35;10.20;99.90
2212;DHT22;48849;48.758;9.158;2023-12-14T07:15:04;10.20;99.90
2212;DHT22;48849;48.758;9.158;2023-12-14T07:17:31;10.20;99.90
2212;DHT22;48849;48.758;9.158;2023-12-14T07:19:58;10.20;99.90
2212;DHT22;48849;48.758;9.158;2023-12-14T07:22:25;10.30;99.90
2212;DHT22;48849;48.758;9.158;2023-12-14T07:24:52;10.30;99.90
2212;DHT22;48849;48.758;9.158;2023-12-14T07:27:18;10.30;99.90
2212;DHT22;48849;48.758;9.158;2023-12-14T07:29:45;10.30;99.90
2212;DHT22;48849;48.758;9.158;2023-12-14T07:32:13;10.30;99.90
2212;DHT22;48849;48.758;9.158;2023-12-14T07:34:40;10.30;99.90
2212;DHT22;48849;48.758;9.158;2023-12-14T07:37:07;10.20;99.90
2212;DHT22;48849;48.758;9.158;2023-12-14T07:39:34;10.20;99.90
2212;DHT22;48849;48.758;9.158;2023-12-14T07:42:00;10.20;99.90
2212;DHT22;48849;48.758;9.158;2023-12-14T07:44:27;10.30;99.90
2212;DHT22;48849;48.758;9.158;2023-12-14T07:46:55;10.30;99.90
2212;DHT22;48849;48.758;9.158;2023-12-14T07:49:23;10.30;99.90
2212;DHT22;48849;48.758;9.158;2023-12-14T07:51:50;10.30;99.90
2212;DHT22;48849;48.758;9.158;2023-12-14T07:54:17;10.30;99.90
2212;DHT22;48849;48.758;9.158;2023-12-14T07:56:44;10.30;99.90
2212;DHT22;48849;48.758;9.158;2023-12-14T07:59:11;10.30;99.90
2212;DHT22;48849;48.758;9.158;2023-12-14T08:01:38;10.40;99.90
2212;DHT22;48849;48.758;9.158;2023-12-14T08:04:05;10.30;99.90
2212;DHT22;48849;48.758;9.158;2023-12-14T08:06:33;10.30;99.90
2212;DHT22;48849;48.758;9.158;2023-12-14T08:09:00;10.30;99.90
2212;DHT22;48849;48.758;9.158;2023-12-14T08:11:27;10.30;99.90
2212;DHT22;48849;48.758;9.158;2023-12-14T08:13:54;10.30;99.90
2212;DHT22;48849;48.758;9.158;2023-12-14T08:16:21;10.40;99.90
2212;DHT22;48849;48.758;9.158;2023-12-14T08:18:47;10.40;99.90
2212;DHT22;48849;48.758;9.158;2023-12-14T08:21:15;10.40;99.90
2212;DHT22;48849;48.758;9.158;2023-12-14T08:23:43;10.40;99.90
2212;DHT22;48849;48.758;9.158;2023-12-14T08:26:10;10.40;99.90
2212;DHT22;48849;48.758;9.158;2023-12-14T08:28:38;10.40;99.90
2212;DHT22;48849;48.758;9.158;2023-12-14T08:31:05;10.40;99.90
2212;DHT22;48849;48.758;9.158;2023-12-14T08:33:33;10.40;99.90
2212;DHT22;48849;48.758;9.158;2023-12-14T08:36:00;10.40;99.90
2212;DHT22;48849;48.758;9.158;2023-12-14T08:38:27;10.40;99.90
2212;DHT22;48849;48.758;9.158;2023-12-14T08:40:55;10.30;99.90
2212;DHT22;48849;48.758;9.158;2023-12-14T08:43:22;10.40;99.90
2212;DHT22;48849;48.758;9.158;2023-12-14T08:45:49;10.30;99.90
2212;DHT22;48849;48.758;9.158;2023-12-14T08:48:15;10.40;99.90
2212;DHT22;48849;48.758;9.158;2023-12-14T08:50:42;10.40;99.90
2212;DHT22;48849;48.758;9.158;2023-12-14T08:53:09;10.50;99.90
2212;DHT22;48849;48.758;9.158;2023-12-14T08:55:37;10.50;99.90
2212;DHT22;48849;48.758;9.158;2023-12-14T08:58:05;10.50;99.90
2212;DHT22;48849;48.758;9.158;2023-12-14T09:00:32;10.40;99.90
2212;DHT22;48849;48.758;9.158;2023-12-14T09:02:58;10.50;99.90
2212;DHT22;48849;48.758;9.158;2023-12-14T09:05:25;10.50;99.90
2212;DHT22;48849;48.758;9.158;2023-12-14T09:07:52;10.50;99.90
2212;DHT22;48849;48.758;9.158;2023-12-14T09:10:21;10.50;99.90
2212;DHT22;48849;48.758;9.158;2023-12-14T09:12:48;10.40;99.90
2212;DHT22;48849;48.758;9.158;2023-12-14T09:15:16;10.50;99.90
2212;DHT22;48849;48.758;9.158;2023-12-14T09:17:43;10.50;99.90
2212;DHT22;48849;48.758;9.158;2023-12-14T09:20:10;10.50;99.90
2212;DHT22;48849;48.758;9.158;2023-12-14T09:22:37;10.50;99.90
2212;DHT22;48849;48.758;9.158;2023-12-14T09:25:05;10.60;99.90
2212;DHT22;48849;48.758;9.158;2023-12-14T09:27:34;10.50;99.90
2212;DHT22;48849;48.758;9.158;2023-12-14T09:30:01;10.60;99.90
2212;DHT22;48849;48.758;9.158;2023-12-14T09:32:29;10.50;99.90
2212;DHT22;48849;48.758;9.158;2023-12-14T09:34:56;10.50;99.90
2212;DHT22;48849;48.758;9.158;2023-12-14T09:37:23;10.50;99.90
2212;DHT22;48849;48.758;9.158;2023-12-14T09:39:50;10.60;99.90
2212;DHT22;48849;48.758;9.158;2023-12-14T09:42:19;10.60;99.90
2212;DHT22;48849;48.758;9.158;2023-12-14T09:44:47;10.60;99.90
2212;DHT22;48849;48.758;9.158;2023-12-14T09:47:14;10.60;99.90
2212;DHT22;48849;48.758;9.158;2023-12-14T09:49:42;10.60;99.90
2212;DHT22;48849;48.758;9.158;2023-12-14T09:52:11;10.70;99.90
2212;DHT22;48849;48.758;9.158;2023-12-14T09:54:37;10.70;99.90
2212;DHT22;48849;48.758;9.158;2023-12-14T09:57:04;10.60;99.90
2212;DHT22;48849;48.758;9.158;2023-12-14T09:59:31;10.70;99.90
2212;DHT22;48849;48.758;9.158;2023-12-14T10:02:13;10.70;99.90
2212;DHT22;48849;48.758;9.158;2023-12-14T10:04:42;10.70;99.90
2212;DHT22;48849;48.758;9.158;2023-12-14T10:07:11;10.70;99.90
2212;DHT22;48849;48.758;9.158;2023-12-14T10:09:38;10.70;99.90
2212;DHT22;48849;48.758;9.158;2023-12-14T10:12:06;10.60;99.90
2212;DHT22;48849;48.758;9.158;2023-12-14T10:14:33;10.70;99.90
2212;DHT22;48849;48.758;9.158;2023-12-14T10:17:14;10.80;99.90
2212;DHT22;48849;48.758;9.158;2023-12-14T10:19:42;10.80;99.90
2212;DHT22;48849;48.758;9.158;2023-12-14T10:22:11;10.80;99.90
2212;DHT22;48849;48.758;9.158;2023-12-14T10:24:38;10.80;99.90
2212;DHT22;48849;48.758;9.158;2023-12-14T10:27:06;10.80;99.90
2212;DHT22;48849;48.758;9.158;2023-12-14T10:29:34;10.80;99.90
2212;DHT22;48849;48.758;9.158;2023-12-14T10:32:03;10.80;99.90
2212;DHT22;48849;48.758;9.158;2023-12-14T10:34:32;10.90;99.90
2212;DHT22;48849;48.758;9.158;2023-12-14T10:36:59;10.80;99.90
2212;DHT22;48849;48.758;9.158;2023-12-14T10:39:29;10.80;99.90
2212;DHT22;48849;48.758;9.158;2023-12-14T10:41:57;10.90;99.90
2212;DHT22;48849;48.758;9.158;2023-12-14T10:44:26;10.90;99.90
2212;DHT22;48849;48.758;9.158;2023-12-14T10:46:55;11.00;99.90
2212;DHT22;48849;48.758;9.158;2023-12-14T10:49:25;11.00;99.90
2212;DHT22;48849;48.758;9.158;2023-12-14T10:51:54;11.00;99.90
2212;DHT22;48849;48.758;9.158;2023-12-14T10:54:21;11.00;99.90
2212;DHT22;48849;48.758;9.158;2023-12-14T10:56:54;11.00;99.90
2212;DHT22;48849;48.758;9.158;2023-12-14T10:59:21;11.10;99.90
2212;DHT22;48849;48.758;9.158;2023-12-14T11:01:51;11.10;99.90
2212;DHT22;48849;48.758;9.158;2023-12-14T11:04:19;11.10;99.90
2212;DHT22;48849;48.758;9.158;2023-12-14T11:06:47;11.10;99.90
2212;DHT22;48849;48.758;9.158;2023-12-14T11:09:17;11.10;99.90
2212;DHT22;48849;48.758;9.158;2023-12-14T11:11:56;11.10;99.90
2212;DHT22;48849;48.758;9.158;2023-12-14T11:14:25;11.10;99.90
2212;DHT22;48849;48.758;9.158;2023-12-14T11:16:54;11.10;99.90
2212;DHT22;48849;48.758;9.158;2023-12-14T11:19:29;11.10;99.90
2212;DHT22;48849;48.758;9.158;2023-12-14T11:22:13;11.10;99.90
2212;DHT22;48849;48.758;9.158;2023-12-14T11:24:53;11.10;99.90
2212;DHT22;48849;48.758;9.158;2023-12-14T11:27:26;11.20;99.90
2212;DHT22;48849;48.758;9.158;2023-12-14T11:29:53;11.20;99.90
2212;DHT22;48849;48.758;9.158;2023-12-14T11:32:20;11.20;99.90
2212;DHT22;48849;48.758;9.158;2023-12-14T11:34:47;11.20;99.90
2212;DHT22;48849;48.758;9.158;2023-12-14T11:37:14;11.20;99.90
2212;DHT22;48849;48.758;9.158;2023-12-14T11:39:41;11.20;99.90
2212;DHT22;48849;48.758;9.158;2023-12-14T11:42:09;11.30;99.90
2212;DHT22;48849;48.758;9.158;2023-12-14T11:44:41;11.20;99.90
2212;DHT22;48849;48.758;9.158;2023-12-14T11:47:07;11.20;99.90
2212;DHT22;48849;48.758;9.158;2023-12-14T11:49:34;11.20;99.90
2212;DHT22;48849;48.758;9.158;2023-12-14T11:52:02;11.20;99.90
2212;DHT22;48849;48.758;9.158;2023-12-14T11:54:30;11.20;99.90
2212;DHT22;48849;48.758;9.158;2023-12-14T11:57:00;11.20;99.90
2212;DHT22;48849;48.758;9.158;2023-12-14T11:59:28;11.20;99.90
2212;DHT22;48849;48.758;9.158;2023-12-14T12:01:57;11.20;99.90
2212;DHT22;48849;48.758;9.158;2023-12-14T12:04:24;11.20;99.90
2212;DHT22;48849;48.758;9.158;2023-12-14T12:06:59;11.20;99.90
2212;DHT22;48849;48.758;9.158;2023-12-14T12:09:37;11.10;99.90
2212;DHT22;48849;48.758;9.158;2023-12-14T12:12:08;11.20;99.90
2212;DHT22;48849;48.758;9.158;2023-12-14T12:14:36;11.20;99.90
2212;DHT22;48849;48.758;9.158;2023-12-14T12:17:05;11.20;99.90
2212;DHT22;48849;48.758;9.158;2023-12-14T12:19:33;11.20;99.90
2212;DHT22;48849;48.758;9.158;2023-12-14T12:22:00;11.20;99.90
2212;DHT22;48849;48.758;9.158;2023-12-14T12:24:27;11.10;99.90
2212;DHT22;48849;48.758;9.158;2023-12-14T12:26:54;11.20;99.90
2212;DHT22;48849;48.758;9.158;2023-12-14T12:29:20;11.20;99.90
2212;DHT22;48849;48.758;9.158;2023-12-14T12:31:47;11.10;99.90
2212;DHT22;48849;48.758;9.158;2023-12-14T12:34:15;11.10;99.90
2212;DHT22;48849;48.758;9.158;2023-12-14T12:36:42;11.10;99.90
2212;DHT22;48849;48.758;9.158;2023-12-14T12:39:09;11.10;99.90
2212;DHT22;48849;48.758;9.158;2023-12-14T12:41:37;11.00;99.90
2212;DHT22;48849;48.758;9.158;2023-12-14T12:44:04;11.00;99.90
2212;DHT22;48849;48.758;9.158;2023-12-14T12:46:32;11.00;99.90
2212;DHT22;48849;48.758;9.158;2023-12-14T12:49:00;11.00;99.90
2212;DHT22;48849;48.758;9.158;2023-12-14T12:51:29;10.90;99.90
2212;DHT22;48849;48.758;9.158;2023-12-14T12:53:56;10.90;99.90
2212;DHT22;48849;48.758;9.158;2023-12-14T12:56:23;10.80;99.90
2212;DHT22;48849;48.758;9.158;2023-12-14T12:58:50;10.80;99.90
2212;DHT22;48849;48.758;9.158;2023-12-14T13:01:19;10.80;99.90
2212;DHT22;48849;48.758;9.158;2023-12-14T13:03:46;10.80;99.90
2212;DHT22;48849;48.758;9.158;2023-12-14T13:06:13;10.80;99.90
2212;DHT22;48849;48.758;9.158;2023-12-14T13:08:41;10.80;99.90
2212;DHT22;48849;48.758;9.158;2023-12-14T13:11:08;10.80;99.90
2212;DHT22;48849;48.758;9.158;2023-12-14T13:13:35;10.80;99.90
2212;DHT22;48849;48.758;9.158;2023-12-14T13:16:02;10.70;99.90
2212;DHT22;48849;48.758;9.158;2023-12-14T13:18:28;10.70;99.90
2212;DHT22;48849;48.758;9.158;2023-12-14T13:20:55;10.80;99.90
2212;DHT22;48849;48.758;9.158;2023-12-14T13:23:21;10.80;99.90
2212;DHT22;48849;48.758;9.158;2023-12-14T13:25:49;10.70;99.90
2212;DHT22;48849;48.758;9.158;2023-12-14T13:28:17;10.80;99.90
2212;DHT22;48849;48.758;9.158;2023-12-14T13:30:44;10.70;99.90
2212;DHT22;48849;48.758;9.158;2023-12-14T13:33:11;10.70;99.90
2212;DHT22;48849;48.758;9.158;2023-12-14T13:35:38;10.70;99.90
2212;DHT22;48849;48.758;9.158;2023-12-14T13:38:05;10.70;99.90
2212;DHT22;48849;48.758;9.158;2023-12-14T13:40:32;10.70;99.90
2212;DHT22;48849;48.758;9.158;2023-12-14T13:43:00;10.70;99.90
2212;DHT22;48849;48.758;9.158;2023-12-14T13:45:35;10.70;99.90
2212;DHT22;48849;48.758;9.158;2023-12-14T13:48:02;10.70;99.90
2212;DHT22;48849;48.758;9.158;2023-12-14T13:50:29;10.70;99.90
2212;DHT22;48849;48.758;9.158;2023-12-14T13:52:56;10.70;99.90
2212;DHT22;48849;48.758;9.158;2023-12-14T13:55:23;10.70;99.90
2212;DHT22;48849;48.758;9.158;2023-12-14T13:57:49;10.70;99.90
2212;DHT22;48849;48.758;9.158;2023-12-14T14:00:18;10.70;99.90
2212;DHT22;48849;48.758;9.158;2023-12-14T14:02:45;10.60;99.90
2212;DHT22;48849;48.758;9.158;2023-12-14T14:05:12;10.70;99.90
2212;DHT22;48849;48.758;9.158;2023-12-14T14:07:39;10.70;99.90
2212;DHT22;48849;48.758;9.158;2023-12-14T14:10:06;10.70;99.90
2212;DHT22;48849;48.758;9.158;2023-12-14T14:12:33;10.70;99.90
2212;DHT22;48849;48.758;9.158;2023-12-14T14:15:00;10.70;99.90
2212;DHT22;48849;48.758;9.158;2023-12-14T14:17:28;10.70;99.90
2212;DHT22;48849;48.758;9.158;2023-12-14T14:19:55;10.70;99.90
2212;DHT22;48849;48.758;9.158;2023-12-14T14:22:20;10.70;99.90
2212;DHT22;48849;48.758;9.158;2023-12-14T14:24:48;10.70;99.90
2212;DHT22;48849;48.758;9.158;2023-12-14T14:27:14;10.70;99.90
2212;DHT22;48849;48.758;9.158;2023-12-14T14:29:41;10.70;99.90
2212;DHT22;48849;48.758;9.158;2023-12-14T14:32:08;10.70;99.90
2212;DHT22;48849;48.758;9.158;2023-12-14T14:34:36;10.70;99.90
2212;DHT22;48849;48.758;9.158;2023-12-14T14:37:03;10.80;99.90
2212;DHT22;48849;48.758;9.158;2023-12-14T14:39:31;10.70;99.90
2212;DHT22;48849;48.758;9.158;2023-12-14T14:41:57;10.70;99.90
2212;DHT22;48849;48.758;9.158;2023-12-14T14:44:25;10.70;99.90
2212;DHT22;48849;48.758;9.158;2023-12-14T14:46:52;10.70;99.90
2212;DHT22;48849;48.758;9.158;2023-12-14T14:49:18;10.70;99.90
2212;DHT22;48849;48.758;9.158;2023-12-14T14:51:47;10.70;99.90
2212;DHT22;48849;48.758;9.158;2023-12-14T14:54:14;10.60;99.90
2212;DHT22;48849;48.758;9.158;2023-12-14T14:56:41;10.70;99.90
2212;DHT22;48849;48.758;9.158;2023-12-14T14:59:08;10.70;99.90
2212;DHT22;48849;48.758;9.158;2023-12-14T15:01:36;10.70;99.90
2212;DHT22;48849;48.758;9.158;2023-12-14T15:04:03;10.70;99.90
2212;DHT22;48849;48.758;9.158;2023-12-14T15:06:30;10.70;99.90
2212;DHT22;48849;48.758;9.158;2023-12-14T15:08:58;10.70;99.90
2212;DHT22;48849;48.758;9.158;2023-12-14T15:11:25;10.80;99.90
2212;DHT22;48849;48.758;9.158;2023-12-14T15:13:52;10.70;99.90
2212;DHT22;48849;48.758;9.158;2023-12-14T15:16:19;10.70;99.90
2212;DHT22;48849;48.758;9.158;2023-12-14T15:18:50;10.70;99.90
2212;DHT22;48849;48.758;9.158;2023-12-14T15:21:16;10.70;99.90
2212;DHT22;48849;48.758;9.158;2023-12-14T15:23:43;10.70;99.90
2212;DHT22;48849;48.758;9.158;2023-12-14T15:26:13;10.70;99.90
2212;DHT22;48849;48.758;9.158;2023-12-14T15:28:41;10.70;99.90
2212;DHT22;48849;48.758;9.158;2023-12-14T15:31:08;10.70;99.90
2212;DHT22;48849;48.758;9.158;2023-12-14T15:33:35;10.70;99.90
2212;DHT22;48849;48.758;9.158;2023-12-14T15:36:02;10.60;99.90
2212;DHT22;48849;48.758;9.158;2023-12-14T15:38:29;10.70;99.90
2212;DHT22;48849;48.758;9.158;2023-12-14T15:40:55;10.70;99.90
2212;DHT22;48849;48.758;9.158;2023-12-14T15:43:24;10.60;99.90
2212;DHT22;48849;48.758;9.158;2023-12-14T15:45:50;10.60;99.90
2212;DHT22;48849;48.758;9.158;2023-12-14T15:48:17;10.60;99.90